Time;durP1;ratioP1;P1;durP2;ratioP2;P2;SDS_P1;SDS_P2;PMS_P1;PMS_P2;Temp;Humidity;BMP_temperature;BMP_pressure;BME280_temperature;BME280_humidity;BME280_pressure;Samples;Min_cycle;Max_cycle;Signal;HPM_P1;HPM_P2
2023/07/20 00:00:41;;;;;;;;;;;25.30;45.80;;;;;;4982699;28;19941;-78
2023/07/20 00:03:11;;;;;;;;;;;25.20;45.90;;;;;;4984233;28;19930;-78
2023/07/20 00:05:38;;;;;;;;;;;25.20;45.90;;;;;;4981061;28;20001;-79
2023/07/20 00:08:04;;;;;;;;;;;25.20;45.90;;;;;;4980293;28;19941;-77
2023/07/20 00:10:31;;;;;;;;;;;25.10;46.00;;;;;;4983929;28;19938;-78
2023/07/20 00:12:59;;;;;;;;;;;25.10;46.20;;;;;;4983095;28;19929;-78
2023/07/20 00:15:25;;;;;;;;;;;25.10;46.30;;;;;;4982019;28;19933;-77
2023/07/20 00:17:52;;;;;;;;;;;25.00;46.10;;;;;;4983856;28;20426;-78
2023/07/20 00:20:18;;;;;;;;;;;25.00;46.10;;;;;;4975532;28;19930;-77
2023/07/20 00:22:45;;;;;;;;;;;25.00;46.10;;;;;;4983640;28;19937;-77
2023/07/20 00:25:12;;;;;;;;;;;24.90;46.10;;;;;;4982503;28;19934;-78
2023/07/20 00:27:38;;;;;;;;;;;24.90;46.00;;;;;;4987845;28;19940;-77
2023/07/20 00:30:07;;;;;;;;;;;24.90;46.10;;;;;;4987005;28;20619;-77
2023/07/20 00:32:34;;;;;;;;;;;24.80;46.00;;;;;;4988952;28;20391;-80
2023/07/20 00:35:00;;;;;;;;;;;24.80;46.20;;;;;;4982662;28;19953;-78
2023/07/20 00:37:27;;;;;;;;;;;24.70;46.30;;;;;;4980250;28;20689;-77
2023/07/20 00:39:54;;;;;;;;;;;24.70;46.20;;;;;;4980093;28;19937;-77
2023/07/20 00:42:20;;;;;;;;;;;24.70;46.40;;;;;;4983879;28;19934;-79
2023/07/20 00:44:46;;;;;;;;;;;24.60;46.40;;;;;;4984034;28;19933;-77
2023/07/20 00:47:13;;;;;;;;;;;24.60;46.50;;;;;;4982285;28;20418;-78
2023/07/20 00:49:40;;;;;;;;;;;24.50;46.60;;;;;;4983280;28;20561;-77
2023/07/20 00:52:07;;;;;;;;;;;24.50;46.50;;;;;;4983369;28;20040;-78
2023/07/20 00:54:34;;;;;;;;;;;24.50;46.70;;;;;;4980975;28;19940;-78
2023/07/20 00:57:01;;;;;;;;;;;24.50;46.80;;;;;;4980111;28;19937;-77
2023/07/20 00:59:28;;;;;;;;;;;24.40;46.70;;;;;;4980575;28;20582;-77
2023/07/20 01:01:55;;;;;;;;;;;24.40;46.80;;;;;;4982943;28;19985;-76
2023/07/20 01:04:22;;;;;;;;;;;24.40;47.00;;;;;;4981574;28;19934;-79
2023/07/20 01:06:53;;;;;;;;;;;24.30;46.90;;;;;;4983702;28;19937;-77
2023/07/20 01:09:20;;;;;;;;;;;24.30;47.00;;;;;;4978478;28;19930;-80
2023/07/20 01:11:53;;;;;;;;;;;24.30;47.10;;;;;;4977111;28;19937;-77
2023/07/20 01:14:19;;;;;;;;;;;24.20;47.10;;;;;;4983207;28;19929;-76
2023/07/20 01:16:46;;;;;;;;;;;24.20;47.20;;;;;;4982291;28;19934;-78
2023/07/20 01:19:14;;;;;;;;;;;24.20;47.30;;;;;;4983287;28;19930;-78
2023/07/20 01:21:46;;;;;;;;;;;24.20;47.40;;;;;;4982871;28;19926;-78
2023/07/20 01:24:25;;;;;;;;;;;24.10;47.40;;;;;;4976580;28;19937;-78
2023/07/20 01:27:01;;;;;;;;;;;24.10;48.10;;;;;;4981174;28;19937;-77
2023/07/20 01:29:37;;;;;;;;;;;24.00;47.60;;;;;;4978178;28;20549;-77
2023/07/20 01:32:07;;;;;;;;;;;24.00;47.70;;;;;;4984137;28;19930;-77
2023/07/20 01:34:35;;;;;;;;;;;24.00;47.70;;;;;;4984593;28;19992;-78
2023/07/20 01:37:02;;;;;;;;;;;24.00;47.80;;;;;;4982132;28;19930;-78
2023/07/20 01:39:28;;;;;;;;;;;23.90;47.80;;;;;;4982611;28;19940;-77
2023/07/20 01:41:55;;;;;;;;;;;23.90;48.00;;;;;;4984554;28;19936;-79
2023/07/20 01:44:22;;;;;;;;;;;23.90;48.10;;;;;;4982514;28;20682;-78
2023/07/20 01:46:48;;;;;;;;;;;23.80;48.10;;;;;;4978557;28;20304;-78
2023/07/20 01:49:16;;;;;;;;;;;23.80;48.20;;;;;;4983509;28;19934;-77
2023/07/20 01:51:43;;;;;;;;;;;23.80;48.20;;;;;;4983172;28;19934;-78
2023/07/20 01:54:09;;;;;;;;;;;23.80;48.40;;;;;;4979126;28;19934;-78
2023/07/20 01:56:36;;;;;;;;;;;23.70;48.50;;;;;;4983039;28;19934;-78
2023/07/20 01:59:02;;;;;;;;;;;23.70;48.60;;;;;;4978642;28;19941;-78
2023/07/20 02:01:29;;;;;;;;;;;23.70;48.70;;;;;;4976601;28;20014;-77
2023/07/20 02:03:56;;;;;;;;;;;23.70;48.90;;;;;;4976349;28;20016;-78
2023/07/20 02:06:23;;;;;;;;;;;23.60;49.00;;;;;;4981366;28;19933;-79
2023/07/20 02:08:50;;;;;;;;;;;23.60;49.10;;;;;;4974519;28;20549;-77
2023/07/20 02:11:16;;;;;;;;;;;23.50;49.20;;;;;;4982006;28;20525;-78
2023/07/20 02:13:43;;;;;;;;;;;23.50;49.20;;;;;;4980405;28;19946;-77
2023/07/20 02:16:11;;;;;;;;;;;23.50;49.40;;;;;;4982347;28;19937;-79
2023/07/20 02:18:37;;;;;;;;;;;23.40;49.30;;;;;;4982186;28;19937;-78
2023/07/20 02:21:04;;;;;;;;;;;23.40;49.40;;;;;;4981597;28;20516;-77
2023/07/20 02:23:32;;;;;;;;;;;23.40;49.40;;;;;;4979650;28;20663;-77
2023/07/20 02:25:59;;;;;;;;;;;23.30;49.40;;;;;;4982839;28;20477;-77
2023/07/20 02:28:25;;;;;;;;;;;23.30;49.50;;;;;;4983574;28;20391;-78
2023/07/20 02:30:52;;;;;;;;;;;23.30;49.50;;;;;;4982866;28;19980;-77
2023/07/20 02:33:19;;;;;;;;;;;23.30;49.50;;;;;;4976139;28;19930;-78
2023/07/20 02:35:46;;;;;;;;;;;23.20;49.60;;;;;;4982494;28;19934;-77
2023/07/20 02:38:13;;;;;;;;;;;23.20;49.70;;;;;;4982734;28;20439;-77
2023/07/20 02:40:41;;;;;;;;;;;23.20;49.60;;;;;;4984522;28;19933;-78
2023/07/20 02:43:07;;;;;;;;;;;23.10;49.70;;;;;;4983873;28;20478;-77
2023/07/20 02:45:34;;;;;;;;;;;23.10;49.80;;;;;;4987360;28;19941;-78
2023/07/20 02:48:00;;;;;;;;;;;23.10;49.80;;;;;;4986405;28;19941;-78
2023/07/20 02:50:27;;;;;;;;;;;23.00;49.80;;;;;;4985295;28;20471;-77
2023/07/20 02:52:54;;;;;;;;;;;23.00;49.90;;;;;;4988501;28;20384;-77
2023/07/20 02:55:20;;;;;;;;;;;23.00;49.90;;;;;;4984650;28;19936;-77
2023/07/20 02:57:48;;;;;;;;;;;23.00;50.10;;;;;;4979374;28;19937;-79
2023/07/20 03:00:16;;;;;;;;;;;22.90;50.00;;;;;;4984171;28;20553;-80
2023/07/20 03:02:43;;;;;;;;;;;22.90;50.10;;;;;;4986342;28;19996;-78
2023/07/20 03:05:09;;;;;;;;;;;22.90;50.20;;;;;;4985917;28;19933;-79
2023/07/20 03:07:36;;;;;;;;;;;22.90;50.20;;;;;;4976308;28;19933;-78
2023/07/20 03:10:03;;;;;;;;;;;22.90;50.30;;;;;;4984937;28;20650;-78
2023/07/20 03:12:29;;;;;;;;;;;22.80;50.40;;;;;;4986128;28;20055;-77
2023/07/20 03:14:57;;;;;;;;;;;22.80;50.50;;;;;;4987951;28;19940;-77
2023/07/20 03:17:24;;;;;;;;;;;22.80;50.50;;;;;;4982517;28;20483;-77
2023/07/20 03:19:50;;;;;;;;;;;22.80;50.70;;;;;;4985681;28;19930;-78
2023/07/20 03:22:17;;;;;;;;;;;22.70;50.60;;;;;;4987139;28;19962;-76
2023/07/20 03:24:43;;;;;;;;;;;22.70;50.70;;;;;;4979247;28;19929;-77
2023/07/20 03:27:10;;;;;;;;;;;22.60;50.80;;;;;;4978388;28;19929;-80
2023/07/20 03:29:37;;;;;;;;;;;22.60;50.80;;;;;;4985476;28;19938;-77
2023/07/20 03:32:05;;;;;;;;;;;22.60;50.90;;;;;;4985799;28;19937;-77
2023/07/20 03:34:31;;;;;;;;;;;22.50;50.90;;;;;;4985155;28;19934;-76
2023/07/20 03:36:59;;;;;;;;;;;22.60;51.00;;;;;;4981919;28;20337;-77
2023/07/20 03:39:25;;;;;;;;;;;22.50;51.00;;;;;;4984854;28;19930;-77
2023/07/20 03:41:52;;;;;;;;;;;22.50;51.10;;;;;;4984274;28;19929;-78
2023/07/20 03:44:18;;;;;;;;;;;22.50;51.20;;;;;;4982127;28;19929;-77
2023/07/20 03:46:45;;;;;;;;;;;22.50;51.30;;;;;;4983765;28;19933;-78
2023/07/20 03:49:13;;;;;;;;;;;22.40;51.30;;;;;;4980125;28;19988;-76
2023/07/20 03:51:39;;;;;;;;;;;22.40;51.30;;;;;;4985659;28;19944;-76
2023/07/20 03:54:07;;;;;;;;;;;22.40;51.40;;;;;;4983420;28;19945;-76
2023/07/20 03:56:35;;;;;;;;;;;22.40;51.40;;;;;;4983904;28;20484;-77
2023/07/20 03:59:01;;;;;;;;;;;22.30;51.40;;;;;;4981092;28;19930;-78
2023/07/20 04:01:28;;;;;;;;;;;22.30;51.50;;;;;;4981684;28;19953;-76
2023/07/20 04:03:55;;;;;;;;;;;22.30;51.50;;;;;;4981403;28;19930;-77
2023/07/20 04:06:23;;;;;;;;;;;22.30;51.60;;;;;;4981518;28;19940;-77
2023/07/20 04:08:49;;;;;;;;;;;22.30;51.60;;;;;;4983101;28;19930;-78
2023/07/20 04:11:16;;;;;;;;;;;22.20;51.60;;;;;;4982983;28;19941;-76
2023/07/20 04:13:42;;;;;;;;;;;22.20;51.60;;;;;;4982143;28;19992;-78
2023/07/20 04:16:09;;;;;;;;;;;22.20;51.70;;;;;;4982658;28;19933;-79
2023/07/20 04:18:36;;;;;;;;;;;22.10;51.70;;;;;;4982507;28;19957;-76
2023/07/20 04:21:02;;;;;;;;;;;22.10;51.70;;;;;;4980321;28;19930;-77
2023/07/20 04:23:30;;;;;;;;;;;22.10;51.80;;;;;;4984748;28;19945;-78
2023/07/20 04:25:57;;;;;;;;;;;22.10;51.80;;;;;;4979029;28;19941;-77
2023/07/20 04:28:23;;;;;;;;;;;22.10;51.90;;;;;;4983414;28;19934;-77
2023/07/20 04:30:50;;;;;;;;;;;22.00;51.90;;;;;;4982995;28;19929;-77
2023/07/20 04:33:17;;;;;;;;;;;22.00;51.90;;;;;;4980648;28;19995;-76
2023/07/20 04:35:48;;;;;;;;;;;22.00;51.90;;;;;;4978136;28;20020;-78
2023/07/20 04:38:17;;;;;;;;;;;22.00;52.00;;;;;;4981872;28;19963;-77
2023/07/20 04:40:45;;;;;;;;;;;22.00;52.00;;;;;;4978326;28;19930;-80
2023/07/20 04:43:12;;;;;;;;;;;21.90;52.10;;;;;;4979958;28;19926;-79
2023/07/20 04:45:38;;;;;;;;;;;21.90;52.10;;;;;;4981203;28;19934;-77
2023/07/20 04:48:06;;;;;;;;;;;21.90;52.20;;;;;;4976281;28;19938;-77
2023/07/20 04:50:33;;;;;;;;;;;21.90;52.20;;;;;;4980016;28;19933;-76
2023/07/20 04:53:00;;;;;;;;;;;21.90;52.30;;;;;;4976766;28;19937;-76
2023/07/20 04:55:26;;;;;;;;;;;21.90;52.90;;;;;;4980033;28;19937;-77
2023/07/20 04:57:54;;;;;;;;;;;21.70;53.40;;;;;;4983305;28;19930;-77
2023/07/20 05:00:21;;;;;;;;;;;21.60;53.40;;;;;;4983166;28;19929;-77
2023/07/20 05:02:48;;;;;;;;;;;21.50;53.50;;;;;;4984115;28;19936;-78
2023/07/20 05:05:15;;;;;;;;;;;21.50;53.50;;;;;;4977761;28;20047;-77
2023/07/20 05:07:41;;;;;;;;;;;21.50;53.50;;;;;;4980453;28;19934;-76
2023/07/20 05:10:08;;;;;;;;;;;21.50;53.50;;;;;;4980563;28;20533;-77
2023/07/20 05:12:35;;;;;;;;;;;21.50;53.50;;;;;;4984374;28;20045;-77
2023/07/20 05:15:03;;;;;;;;;;;21.50;53.50;;;;;;4977506;28;19934;-78
2023/07/20 05:17:29;;;;;;;;;;;21.50;53.50;;;;;;4978858;28;20390;-78
2023/07/20 05:19:56;;;;;;;;;;;21.50;53.50;;;;;;4981461;28;19930;-76
2023/07/20 05:22:24;;;;;;;;;;;21.50;53.60;;;;;;4985372;28;19941;-77
2023/07/20 05:24:50;;;;;;;;;;;21.50;53.60;;;;;;4984715;28;19926;-76
2023/07/20 05:27:17;;;;;;;;;;;21.50;54.20;;;;;;4981379;28;19940;-76
2023/07/20 05:29:44;;;;;;;;;;;21.50;53.60;;;;;;4985212;28;19937;-76
2023/07/20 05:32:12;;;;;;;;;;;21.40;53.60;;;;;;4985479;28;19930;-76
2023/07/20 05:34:38;;;;;;;;;;;21.40;53.60;;;;;;4974317;28;19941;-77
2023/07/20 05:37:05;;;;;;;;;;;21.40;53.70;;;;;;4986268;28;20037;-76
2023/07/20 05:39:33;;;;;;;;;;;21.40;53.70;;;;;;4980049;28;19930;-76
2023/07/20 05:41:59;;;;;;;;;;;21.40;53.80;;;;;;4985499;28;20311;-77
2023/07/20 05:44:26;;;;;;;;;;;21.40;53.80;;;;;;4982279;28;20786;-76
2023/07/20 05:46:52;;;;;;;;;;;21.40;53.70;;;;;;4983301;28;19930;-76
2023/07/20 05:49:20;;;;;;;;;;;21.40;53.80;;;;;;4985024;28;19930;-76
2023/07/20 05:51:47;;;;;;;;;;;21.40;53.80;;;;;;4985904;28;19937;-76
2023/07/20 05:54:14;;;;;;;;;;;21.40;53.90;;;;;;4981072;28;20033;-76
2023/07/20 05:56:40;;;;;;;;;;;21.40;53.90;;;;;;4982946;28;19930;-76
2023/07/20 05:59:07;;;;;;;;;;;21.40;53.90;;;;;;4985336;28;19942;-76
2023/07/20 06:01:33;;;;;;;;;;;21.40;53.90;;;;;;4979089;28;19937;-77
2023/07/20 06:04:00;;;;;;;;;;;21.40;54.00;;;;;;4984390;28;20782;-76
2023/07/20 06:06:28;;;;;;;;;;;21.40;54.00;;;;;;4985020;28;20426;-76
2023/07/20 06:08:54;;;;;;;;;;;21.40;54.00;;;;;;4982596;28;20403;-76
2023/07/20 06:11:21;;;;;;;;;;;21.40;54.00;;;;;;4984328;28;20462;-76
2023/07/20 06:13:47;;;;;;;;;;;21.40;54.00;;;;;;4984724;28;20343;-77
2023/07/20 06:16:14;;;;;;;;;;;21.40;54.00;;;;;;4983118;28;20061;-77
2023/07/20 06:18:40;;;;;;;;;;;21.50;54.00;;;;;;4982972;28;19929;-77
2023/07/20 06:21:07;;;;;;;;;;;21.50;54.00;;;;;;4984106;28;19933;-77
2023/07/20 06:23:35;;;;;;;;;;;21.50;54.10;;;;;;4982133;28;19937;-78
2023/07/20 06:26:02;;;;;;;;;;;21.50;54.10;;;;;;4980198;28;19934;-77
2023/07/20 06:28:28;;;;;;;;;;;21.50;54.10;;;;;;4984178;28;19945;-76
2023/07/20 06:30:59;;;;;;;;;;;21.50;54.10;;;;;;4973504;28;19930;-76
2023/07/20 06:33:26;;;;;;;;;;;21.50;54.20;;;;;;4980121;28;19926;-77
2023/07/20 06:35:52;;;;;;;;;;;21.50;54.30;;;;;;4981771;28;20634;-77
2023/07/20 06:38:19;;;;;;;;;;;21.50;54.20;;;;;;4984639;28;20005;-76
2023/07/20 06:40:48;;;;;;;;;;;21.50;54.20;;;;;;4984712;28;19930;-77
2023/07/20 06:43:14;;;;;;;;;;;21.50;54.30;;;;;;4982497;28;19930;-77
2023/07/20 06:45:41;;;;;;;;;;;21.50;54.20;;;;;;4981827;28;19930;-77
2023/07/20 06:48:08;;;;;;;;;;;21.60;54.30;;;;;;4984633;28;19934;-77
2023/07/20 06:50:34;;;;;;;;;;;21.60;54.40;;;;;;4982991;28;19934;-77
2023/07/20 06:53:03;;;;;;;;;;;21.60;54.40;;;;;;4983524;28;20419;-76
2023/07/20 06:55:29;;;;;;;;;;;21.60;54.30;;;;;;4980133;28;19929;-77
2023/07/20 06:57:57;;;;;;;;;;;21.60;54.40;;;;;;4985335;28;19929;-77
2023/07/20 07:00:24;;;;;;;;;;;21.60;54.40;;;;;;4980404;28;19938;-77
2023/07/20 07:02:50;;;;;;;;;;;21.60;54.50;;;;;;4977889;28;19929;-77
2023/07/20 07:05:18;;;;;;;;;;;21.60;54.50;;;;;;4984244;28;19941;-76
2023/07/20 07:07:44;;;;;;;;;;;21.70;55.00;;;;;;4982642;28;19937;-77
2023/07/20 07:10:11;;;;;;;;;;;21.70;54.50;;;;;;4988035;28;19929;-76
2023/07/20 07:12:37;;;;;;;;;;;21.70;54.60;;;;;;4985221;28;20312;-76
2023/07/20 07:15:06;;;;;;;;;;;21.70;54.50;;;;;;4987280;28;19934;-77
2023/07/20 07:17:34;;;;;;;;;;;21.70;54.50;;;;;;5005654;28;20036;-77
2023/07/20 07:20:01;;;;;;;;;;;21.70;54.50;;;;;;5011658;28;20559;-77
2023/07/20 07:22:29;;;;;;;;;;;21.80;54.50;;;;;;5010502;28;19929;-77
2023/07/20 07:24:55;;;;;;;;;;;21.80;54.50;;;;;;5010356;28;20311;-77
2023/07/20 07:27:22;;;;;;;;;;;21.80;54.50;;;;;;5008234;28;19945;-77
2023/07/20 07:29:49;;;;;;;;;;;21.80;54.50;;;;;;5006918;28;19933;-77
2023/07/20 07:32:17;;;;;;;;;;;21.80;54.50;;;;;;4997804;28;19930;-77
2023/07/20 07:34:46;;;;;;;;;;;21.80;54.50;;;;;;4998154;28;19929;-77
2023/07/20 07:37:12;;;;;;;;;;;21.90;54.50;;;;;;5003281;28;19933;-77
2023/07/20 07:39:39;;;;;;;;;;;21.90;54.40;;;;;;5006009;28;19937;-76
2023/07/20 07:42:06;;;;;;;;;;;21.90;54.40;;;;;;5001897;28;20411;-77
2023/07/20 07:44:33;;;;;;;;;;;21.90;54.40;;;;;;5006541;28;19933;-77
2023/07/20 07:46:59;;;;;;;;;;;21.90;54.40;;;;;;4998323;28;19930;-77
2023/07/20 07:49:27;;;;;;;;;;;21.90;54.40;;;;;;4997284;28;19933;-76
2023/07/20 07:51:54;;;;;;;;;;;21.90;54.40;;;;;;5009351;28;19966;-76
2023/07/20 07:54:20;;;;;;;;;;;22.00;54.50;;;;;;5004508;28;19934;-77
2023/07/20 07:56:47;;;;;;;;;;;22.00;54.50;;;;;;5003191;28;20013;-76
2023/07/20 07:59:13;;;;;;;;;;;22.00;54.40;;;;;;5004223;28;19937;-76
2023/07/20 08:01:40;;;;;;;;;;;22.00;54.40;;;;;;5008172;28;19953;-77
2023/07/20 08:04:06;;;;;;;;;;;22.00;54.40;;;;;;5010125;28;19936;-77
2023/07/20 08:06:34;;;;;;;;;;;22.00;54.40;;;;;;5004909;28;19929;-76
2023/07/20 08:09:02;;;;;;;;;;;22.00;54.40;;;;;;5012325;28;20008;-77
2023/07/20 08:11:30;;;;;;;;;;;22.00;54.30;;;;;;5011537;28;19986;-76
2023/07/20 08:13:57;;;;;;;;;;;22.10;54.40;;;;;;5008410;28;19972;-77
2023/07/20 08:16:23;;;;;;;;;;;22.00;54.20;;;;;;5009199;28;19937;-76
2023/07/20 08:18:50;;;;;;;;;;;22.10;54.20;;;;;;5001283;28;20382;-77
2023/07/20 08:21:17;;;;;;;;;;;22.10;54.10;;;;;;5008447;28;19985;-76
2023/07/20 08:23:45;;;;;;;;;;;22.10;54.00;;;;;;5008311;28;19929;-77
2023/07/20 08:26:11;;;;;;;;;;;22.20;54.00;;;;;;4999322;28;19929;-77
2023/07/20 08:28:38;;;;;;;;;;;22.20;53.90;;;;;;5000544;28;19933;-77
2023/07/20 08:31:06;;;;;;;;;;;22.20;54.00;;;;;;5008692;28;19941;-76
2023/07/20 08:33:33;;;;;;;;;;;22.20;53.90;;;;;;5005716;28;19936;-77
2023/07/20 08:36:00;;;;;;;;;;;22.20;53.90;;;;;;5007678;28;19939;-76
2023/07/20 08:38:27;;;;;;;;;;;22.30;53.90;;;;;;5009544;28;19929;-76
2023/07/20 08:40:55;;;;;;;;;;;22.30;53.80;;;;;;5008679;28;19933;-77
2023/07/20 08:43:23;;;;;;;;;;;22.30;53.70;;;;;;5006130;28;19935;-76
2023/07/20 08:45:50;;;;;;;;;;;22.30;53.70;;;;;;4999861;28;19940;-77
2023/07/20 08:48:18;;;;;;;;;;;22.40;53.80;;;;;;4992560;28;19926;-76
2023/07/20 08:50:44;;;;;;;;;;;22.40;53.80;;;;;;4991732;28;19936;-77
2023/07/20 08:53:11;;;;;;;;;;;22.40;53.80;;;;;;4989368;28;20344;-77
2023/07/20 08:55:38;;;;;;;;;;;22.40;53.70;;;;;;4991615;28;19941;-77
2023/07/20 08:58:08;;;;;;;;;;;22.50;53.70;;;;;;4991196;28;19930;-77
2023/07/20 09:00:35;;;;;;;;;;;22.50;53.50;;;;;;4988504;28;19933;-77
2023/07/20 09:03:03;;;;;;;;;;;22.60;53.60;;;;;;5008678;28;19933;-77
2023/07/20 09:05:30;;;;;;;;;;;22.60;53.50;;;;;;5005101;28;19933;-77
2023/07/20 09:07:56;;;;;;;;;;;22.60;53.50;;;;;;5005976;28;19953;-76
2023/07/20 09:10:24;;;;;;;;;;;22.60;53.50;;;;;;5009091;28;19929;-76
2023/07/20 09:12:51;;;;;;;;;;;22.70;53.20;;;;;;5001163;28;20404;-77
2023/07/20 09:15:20;;;;;;;;;;;22.70;53.10;;;;;;5008648;28;19936;-77
2023/07/20 09:17:47;;;;;;;;;;;22.70;52.90;;;;;;5005034;28;19929;-77
2023/07/20 09:20:15;;;;;;;;;;;22.80;52.80;;;;;;5000675;28;20021;-78
2023/07/20 09:22:42;;;;;;;;;;;22.80;52.70;;;;;;5005291;28;20308;-77
2023/07/20 09:25:11;;;;;;;;;;;22.80;52.80;;;;;;4992945;28;19930;-76
2023/07/20 09:27:39;;;;;;;;;;;22.90;52.80;;;;;;5002101;28;19933;-77
2023/07/20 09:30:07;;;;;;;;;;;23.00;52.60;;;;;;4998159;28;19937;-77
2023/07/20 09:32:39;;;;;;;;;;;23.00;53.10;;;;;;4998635;28;20451;-77
2023/07/20 09:35:06;;;;;;;;;;;23.00;52.40;;;;;;5005982;28;19933;-77
2023/07/20 09:37:33;;;;;;;;;;;23.10;52.70;;;;;;5000632;28;19929;-77
2023/07/20 09:40:00;;;;;;;;;;;23.10;52.40;;;;;;5003860;28;20800;-77
2023/07/20 09:42:27;;;;;;;;;;;23.10;51.90;;;;;;5007764;28;20000;-77
2023/07/20 09:44:53;;;;;;;;;;;23.20;52.00;;;;;;5003612;28;20009;-77
2023/07/20 09:47:23;;;;;;;;;;;23.20;51.60;;;;;;4998462;28;20059;-78
2023/07/20 09:49:55;;;;;;;;;;;23.30;51.60;;;;;;4986201;28;20009;-77
2023/07/20 09:52:22;;;;;;;;;;;23.40;51.70;;;;;;4995315;28;19929;-77
2023/07/20 09:54:49;;;;;;;;;;;23.40;51.40;;;;;;4997609;28;20048;-77
2023/07/20 09:57:15;;;;;;;;;;;23.40;51.20;;;;;;4988867;28;19937;-77
2023/07/20 09:59:42;;;;;;;;;;;23.50;51.00;;;;;;4994165;28;19934;-78
2023/07/20 10:02:12;;;;;;;;;;;23.50;51.20;;;;;;4999388;28;19933;-77
2023/07/20 10:04:40;;;;;;;;;;;23.60;51.40;;;;;;5001016;28;21305;-77
2023/07/20 10:07:11;;;;;;;;;;;23.60;51.10;;;;;;5007636;28;20058;-77
2023/07/20 10:09:39;;;;;;;;;;;23.60;50.80;;;;;;5013152;28;19983;-77
2023/07/20 10:12:07;;;;;;;;;;;23.60;50.80;;;;;;5004272;28;19975;-77
2023/07/20 10:14:35;;;;;;;;;;;23.70;50.50;;;;;;5005259;28;19930;-79
2023/07/20 10:17:02;;;;;;;;;;;23.80;50.00;;;;;;5000101;28;20305;-77
2023/07/20 10:19:39;;;;;;;;;;;23.80;50.00;;;;;;5005765;28;19929;-77
2023/07/20 10:22:10;;;;;;;;;;;23.90;50.00;;;;;;5010785;28;19937;-77
2023/07/20 10:24:39;;;;;;;;;;;24.00;50.00;;;;;;5007785;28;20000;-77
2023/07/20 10:27:06;;;;;;;;;;;24.00;49.40;;;;;;5009078;28;19954;-78
2023/07/20 10:29:33;;;;;;;;;;;24.10;49.20;;;;;;5011974;28;19930;-78
2023/07/20 10:32:00;;;;;;;;;;;24.10;48.80;;;;;;5002292;28;20024;-77
2023/07/20 10:34:27;;;;;;;;;;;24.20;48.60;;;;;;4999394;28;19933;-77
2023/07/20 10:36:54;;;;;;;;;;;24.30;49.10;;;;;;5003861;28;19998;-78
2023/07/20 10:39:24;;;;;;;;;;;24.30;49.20;;;;;;5003600;28;19951;-77
2023/07/20 10:42:00;;;;;;;;;;;24.40;48.40;;;;;;5002687;28;20040;-77
2023/07/20 10:44:27;;;;;;;;;;;24.50;48.00;;;;;;5005217;28;19929;-78
2023/07/20 10:46:59;;;;;;;;;;;24.50;48.10;;;;;;5009877;28;19937;-77
2023/07/20 10:49:27;;;;;;;;;;;24.60;47.70;;;;;;5012896;28;19935;-77
2023/07/20 10:51:57;;;;;;;;;;;24.70;47.30;;;;;;5008475;28;20468;-77
2023/07/20 10:54:36;;;;;;;;;;;24.70;46.90;;;;;;5010500;28;19933;-77
2023/07/20 10:57:21;;;;;;;;;;;24.80;46.90;;;;;;5009343;28;19968;-78
2023/07/20 10:59:49;;;;;;;;;;;24.90;47.40;;;;;;5008374;28;19934;-77
2023/07/20 11:02:18;;;;;;;;;;;24.90;46.00;;;;;;5011350;28;19956;-77
2023/07/20 11:04:46;;;;;;;;;;;25.00;46.40;;;;;;5014254;28;19980;-77
2023/07/20 11:07:16;;;;;;;;;;;25.00;46.60;;;;;;5015909;28;19954;-77
2023/07/20 11:09:43;;;;;;;;;;;25.10;46.50;;;;;;5011843;28;19933;-77
2023/07/20 11:12:10;;;;;;;;;;;25.10;47.10;;;;;;5008260;28;19984;-77
2023/07/20 11:14:40;;;;;;;;;;;25.10;46.30;;;;;;5013891;28;20414;-76
2023/07/20 11:17:13;;;;;;;;;;;25.20;46.80;;;;;;5011729;28;19925;-77
2023/07/20 11:19:39;;;;;;;;;;;25.20;46.20;;;;;;5012153;28;19941;-78
2023/07/20 11:22:09;;;;;;;;;;;25.30;45.80;;;;;;5013090;28;19957;-77
2023/07/20 11:24:35;;;;;;;;;;;25.30;45.80;;;;;;5013396;28;19968;-77
2023/07/20 11:27:02;;;;;;;;;;;25.40;45.20;;;;;;5013401;28;19956;-78
2023/07/20 11:29:27;;;;;;;;;;;25.40;45.40;;;;;;5012730;28;20647;-78
2023/07/20 11:31:54;;;;;;;;;;;25.50;44.90;;;;;;5008090;28;20004;-77
2023/07/20 11:34:22;;;;;;;;;;;25.50;44.90;;;;;;5003661;28;19929;-77
2023/07/20 11:36:49;;;;;;;;;;;25.60;44.90;;;;;;5011636;28;19945;-77
2023/07/20 11:39:16;;;;;;;;;;;25.60;44.60;;;;;;5008908;28;19933;-77
2023/07/20 11:41:45;;;;;;;;;;;25.70;44.80;;;;;;5005826;28;19941;-77
2023/07/20 11:44:13;;;;;;;;;;;25.80;45.10;;;;;;5008126;28;19936;-77
2023/07/20 11:46:39;;;;;;;;;;;25.90;44.80;;;;;;5006792;28;19929;-77
2023/07/20 11:49:06;;;;;;;;;;;25.90;44.90;;;;;;5000230;28;19936;-78
2023/07/20 11:51:35;;;;;;;;;;;25.90;45.00;;;;;;5004539;28;19929;-78
2023/07/20 11:54:02;;;;;;;;;;;26.00;44.80;;;;;;5003516;28;19987;-77
2023/07/20 11:56:29;;;;;;;;;;;26.00;44.40;;;;;;5002608;28;19930;-77
2023/07/20 11:58:55;;;;;;;;;;;26.10;44.20;;;;;;5008637;28;19961;-77
2023/07/20 12:01:22;;;;;;;;;;;26.20;43.80;;;;;;4997266;28;19933;-77
2023/07/20 12:03:49;;;;;;;;;;;26.20;43.50;;;;;;5005461;28;19929;-78
2023/07/20 12:06:15;;;;;;;;;;;26.30;43.50;;;;;;5001637;28;19930;-77
2023/07/20 12:08:44;;;;;;;;;;;26.30;43.50;;;;;;5008183;28;19940;-77
2023/07/20 12:11:10;;;;;;;;;;;26.40;43.50;;;;;;5005259;28;19983;-77
2023/07/20 12:13:42;;;;;;;;;;;26.50;43.70;;;;;;5005840;28;19936;-77
2023/07/20 12:16:14;;;;;;;;;;;26.50;43.50;;;;;;5004548;28;19929;-77
2023/07/20 12:18:40;;;;;;;;;;;26.50;43.40;;;;;;5012644;28;19944;-77
2023/07/20 12:21:07;;;;;;;;;;;26.60;43.10;;;;;;5010712;28;19929;-77
2023/07/20 12:23:37;;;;;;;;;;;26.60;42.50;;;;;;5011883;28;19967;-77
2023/07/20 12:26:06;;;;;;;;;;;26.70;42.80;;;;;;5007385;28;20068;-77
2023/07/20 12:28:33;;;;;;;;;;;26.70;43.10;;;;;;5008045;28;19952;-77
2023/07/20 12:30:59;;;;;;;;;;;26.80;43.10;;;;;;5007042;28;19929;-77
2023/07/20 12:33:26;;;;;;;;;;;26.80;42.40;;;;;;5011753;28;19945;-77
2023/07/20 12:35:55;;;;;;;;;;;26.90;42.60;;;;;;5007299;28;19929;-77
2023/07/20 12:38:22;;;;;;;;;;;26.90;41.90;;;;;;5008222;28;20943;-77
2023/07/20 12:40:49;;;;;;;;;;;27.00;42.00;;;;;;5011120;28;19929;-78
2023/07/20 12:43:16;;;;;;;;;;;27.00;43.40;;;;;;5007177;28;19930;-76
2023/07/20 12:45:43;;;;;;;;;;;27.10;42.40;;;;;;5008110;28;19937;-77
2023/07/20 12:48:10;;;;;;;;;;;27.20;41.90;;;;;;5006660;28;19929;-78
2023/07/20 12:50:36;;;;;;;;;;;27.20;43.40;;;;;;5007988;28;20214;-78
2023/07/20 12:53:04;;;;;;;;;;;27.30;42.40;;;;;;5014106;28;19929;-78
2023/07/20 12:55:30;;;;;;;;;;;27.30;42.80;;;;;;5011003;28;20392;-78
2023/07/20 12:57:57;;;;;;;;;;;27.30;42.00;;;;;;5013314;28;20354;-77
2023/07/20 13:00:25;;;;;;;;;;;27.40;41.70;;;;;;5010791;28;20380;-78
2023/07/20 13:02:51;;;;;;;;;;;27.40;41.40;;;;;;5012005;28;19936;-78
2023/07/20 13:05:18;;;;;;;;;;;27.50;40.70;;;;;;5010221;28;19936;-77
2023/07/20 13:07:45;;;;;;;;;;;27.50;41.30;;;;;;5016378;28;19933;-77
2023/07/20 13:10:12;;;;;;;;;;;27.60;42.00;;;;;;5011599;28;19959;-77
2023/07/20 13:12:39;;;;;;;;;;;27.60;41.50;;;;;;5012534;28;20422;-77
2023/07/20 13:15:06;;;;;;;;;;;27.60;41.40;;;;;;5013100;28;19926;-76
2023/07/20 13:17:35;;;;;;;;;;;27.70;40.80;;;;;;5009621;28;19960;-77
2023/07/20 13:20:04;;;;;;;;;;;27.70;40.70;;;;;;5013658;28;19936;-77
2023/07/20 13:22:31;;;;;;;;;;;27.70;39.80;;;;;;5010476;28;19961;-78
2023/07/20 13:24:57;;;;;;;;;;;27.80;41.90;;;;;;5007774;28;19933;-77
2023/07/20 13:27:25;;;;;;;;;;;27.80;40.40;;;;;;5011498;28;19929;-77
2023/07/20 13:29:52;;;;;;;;;;;27.90;42.00;;;;;;5011766;28;19930;-77
2023/07/20 13:32:19;;;;;;;;;;;27.90;39.50;;;;;;4991968;28;19937;-78
2023/07/20 13:34:48;;;;;;;;;;;27.90;39.50;;;;;;4990513;28;19938;-78
2023/07/20 13:37:15;;;;;;;;;;;28.00;40.00;;;;;;4990805;28;20356;-77
2023/07/20 13:39:43;;;;;;;;;;;28.10;41.70;;;;;;4993338;28;19980;-79
2023/07/20 13:42:11;;;;;;;;;;;28.10;42.30;;;;;;4982448;28;19943;-77
2023/07/20 13:44:38;;;;;;;;;;;28.20;41.60;;;;;;4987988;28;19929;-78
2023/07/20 13:47:05;;;;;;;;;;;28.20;40.80;;;;;;5002547;28;20005;-78
2023/07/20 13:49:32;;;;;;;;;;;28.30;39.50;;;;;;5015546;28;20039;-78
2023/07/20 13:52:00;;;;;;;;;;;28.30;40.90;;;;;;5007746;28;19933;-78
2023/07/20 13:54:27;;;;;;;;;;;28.40;40.70;;;;;;5001267;28;19940;-78
2023/07/20 13:56:53;;;;;;;;;;;28.40;38.60;;;;;;5009999;28;20663;-78
2023/07/20 13:59:20;;;;;;;;;;;28.50;39.00;;;;;;5005153;28;19930;-79
2023/07/20 14:01:47;;;;;;;;;;;28.50;37.90;;;;;;4990395;28;19965;-77
2023/07/20 14:04:13;;;;;;;;;;;28.60;39.60;;;;;;4990093;28;20009;-78
2023/07/20 14:06:40;;;;;;;;;;;28.60;39.50;;;;;;4987220;28;19953;-77
2023/07/20 14:09:08;;;;;;;;;;;28.70;39.30;;;;;;4988784;28;19930;-77
2023/07/20 14:11:35;;;;;;;;;;;28.70;39.10;;;;;;4990874;28;20301;-77
2023/07/20 14:14:01;;;;;;;;;;;28.70;38.40;;;;;;4996851;28;20339;-78
2023/07/20 14:16:28;;;;;;;;;;;28.80;38.70;;;;;;5001646;28;20279;-77